KSUX/SUX METAR and TAF weather

Enter ICAO airport designator
Station Type Date Time Source
KSUX METAR 2022/12/10 02:02 UTC NOAA

KSUX 100202Z 15004KT 5SM BR OVC009 00/M01 A3013 RMK AO2 T00001006


Station Type Date Time Source
KSUX Decoded METAR 2022/12/10 02:02 UTC NOAA

SIOUX GATEWAY AIRPORT, IA, United States (KSUX) 42-23N 96-23W 338M
Dec 09, 2022 - 09:02 PM EST / 2022.12.10 0202 UTC
Wind: from the SSE (150 degrees) at 5 MPH (4 KT):0
Visibility: 5 mile(s):0
Sky conditions: overcast
Weather: mist
Temperature: 32.0 F (0.0 C)
Windchill: 26 F (-3 C):1
Dew Point: 30.9 F (-0.6 C)
Relative Humidity: 95%
Pressure (altimeter): 30.13 in. Hg (1020 hPa)
ob: KSUX 100202Z 15004KT 5SM BR OVC009 00/M01 A3013 RMK AO2 T00001006
cycle: 2

Station Type Date Time Source
KSUX TAF 2022/12/09 20:34 UTC NOAA

TAF
AMD KSUX 091931Z 0920/1018 VRB05KT 6SM BR OVC010
FM100500 15005KT P6SM OVC015
FM100900 16008KT P6SM BKN015
FM101500 20008KT P6SM SCT050

Example: see airport list